createdAt,value
2017-08-22T00:00:38.758Z,54.80
2017-08-22T00:03:06.263Z,54.80
2017-08-22T00:05:33.786Z,54.90
2017-08-22T00:08:01.283Z,54.70
2017-08-22T00:10:28.813Z,54.80
2017-08-22T00:12:56.338Z,54.80
2017-08-22T00:15:23.851Z,54.80
2017-08-22T00:17:51.371Z,54.80
2017-08-22T00:20:18.871Z,54.80
2017-08-22T00:22:46.391Z,54.80
2017-08-22T00:25:13.890Z,54.80
2017-08-22T00:27:41.538Z,54.90
2017-08-22T00:30:09.037Z,54.90
2017-08-22T00:32:36.580Z,54.80
2017-08-22T00:35:04.082Z,54.80
2017-08-22T00:37:31.615Z,54.90
2017-08-22T00:39:59.105Z,55.00
2017-08-22T00:42:26.625Z,54.90
2017-08-22T00:44:54.130Z,55.00
2017-08-22T00:47:21.807Z,55.00
2017-08-22T00:49:49.311Z,55.00
2017-08-22T00:52:16.838Z,55.00
2017-08-22T00:54:44.339Z,54.90
2017-08-22T00:57:11.853Z,54.90
2017-08-22T00:59:39.376Z,54.90
2017-08-22T01:02:06.883Z,54.90
2017-08-22T01:04:34.402Z,54.90
2017-08-22T01:07:01.915Z,54.80
2017-08-22T01:09:29.443Z,54.80
2017-08-22T01:11:56.952Z,54.90
2017-08-22T01:14:24.494Z,54.90
2017-08-22T01:16:51.999Z,54.80
2017-08-22T01:19:19.548Z,55.00
2017-08-22T01:21:47.048Z,55.00
2017-08-22T01:24:14.554Z,55.00
2017-08-22T01:26:42.080Z,55.00
2017-08-22T01:29:09.584Z,55.00
2017-08-22T01:31:37.120Z,54.90
2017-08-22T01:34:04.632Z,54.90
2017-08-22T01:36:32.160Z,54.90
2017-08-22T01:38:59.678Z,54.80
2017-08-22T01:41:27.196Z,55.50
2017-08-22T01:43:54.694Z,54.90
2017-08-22T01:46:22.226Z,54.90
2017-08-22T01:48:49.727Z,55.00
2017-08-22T01:51:17.239Z,55.00
2017-08-22T01:53:44.771Z,55.00
2017-08-22T01:56:12.278Z,55.00
2017-08-22T01:58:39.794Z,55.00
2017-08-22T02:01:07.307Z,55.00
2017-08-22T02:03:34.826Z,55.10
2017-08-22T02:06:02.331Z,55.60
2017-08-22T02:08:29.855Z,55.20
2017-08-22T02:10:57.366Z,55.40
2017-08-22T02:13:24.893Z,55.50
2017-08-22T02:15:52.394Z,55.50
2017-08-22T02:18:19.922Z,55.40
2017-08-22T02:20:47.433Z,55.30
2017-08-22T02:23:14.932Z,55.20
2017-08-22T02:25:42.635Z,55.20
2017-08-22T02:28:10.134Z,55.10
2017-08-22T02:30:37.672Z,55.10
2017-08-22T02:33:05.171Z,55.10
2017-08-22T02:35:32.697Z,55.10
2017-08-22T02:38:00.234Z,55.10
2017-08-22T02:40:27.751Z,55.10
2017-08-22T02:42:55.254Z,55.10
2017-08-22T02:45:22.775Z,55.10
2017-08-22T02:47:50.286Z,55.10
2017-08-22T02:50:17.807Z,55.00
2017-08-22T02:52:45.307Z,55.00
2017-08-22T02:55:12.839Z,55.10
2017-08-22T02:57:40.367Z,55.20
2017-08-22T03:00:07.866Z,55.80
2017-08-22T03:02:35.381Z,55.10
2017-08-22T03:05:02.877Z,55.10
2017-08-22T03:07:30.398Z,55.10
2017-08-22T03:09:57.909Z,55.00
2017-08-22T03:12:25.514Z,55.10
2017-08-22T03:14:53.091Z,55.10
2017-08-22T03:17:20.630Z,55.00
2017-08-22T03:19:48.134Z,55.10
2017-08-22T03:22:15.654Z,55.20
2017-08-22T03:24:43.150Z,55.20
2017-08-22T03:27:10.662Z,55.20
2017-08-22T03:29:38.172Z,55.10
2017-08-22T03:32:05.703Z,55.00
2017-08-22T03:34:33.210Z,55.00
2017-08-22T03:37:00.761Z,55.10
2017-08-22T03:39:28.280Z,55.20
2017-08-22T03:41:55.783Z,55.20
2017-08-22T03:44:23.307Z,55.20
2017-08-22T03:46:50.810Z,55.20
2017-08-22T03:49:18.554Z,55.30
2017-08-22T03:51:46.058Z,55.30
2017-08-22T03:54:13.690Z,55.40
2017-08-22T03:56:41.198Z,55.40
2017-08-22T03:59:08.714Z,55.30
2017-08-22T04:01:36.216Z,55.40
2017-08-22T04:04:03.747Z,55.40
2017-08-22T04:06:31.243Z,55.30
2017-08-22T04:08:58.770Z,55.30
2017-08-22T04:11:26.342Z,55.20
2017-08-22T04:13:54.060Z,55.20
2017-08-22T04:16:21.550Z,55.10
2017-08-22T04:18:49.067Z,55.20
2017-08-22T04:21:16.562Z,55.20
2017-08-22T04:23:44.090Z,55.20
2017-08-22T04:26:11.587Z,54.90
2017-08-22T04:28:40.240Z,55.30
2017-08-22T04:31:07.759Z,55.30
2017-08-22T04:33:35.257Z,55.30
2017-08-22T04:36:02.774Z,55.30
2017-08-22T04:38:30.280Z,55.30
2017-08-22T04:40:57.802Z,55.30
2017-08-22T04:43:25.323Z,55.50
2017-08-22T04:45:52.843Z,55.50
2017-08-22T04:48:20.378Z,55.60
2017-08-22T04:50:47.895Z,55.60
2017-08-22T04:53:15.396Z,55.60
2017-08-22T04:55:42.914Z,55.60
2017-08-22T04:58:10.414Z,55.60
2017-08-22T05:00:37.943Z,55.70
2017-08-22T05:03:05.465Z,55.80
2017-08-22T05:05:36.338Z,56.00
2017-08-22T05:08:03.883Z,56.00
2017-08-22T05:10:31.401Z,56.00
2017-08-22T05:12:58.933Z,56.20
2017-08-22T05:15:26.483Z,56.20
2017-08-22T05:17:54.018Z,56.30
2017-08-22T05:20:21.527Z,56.30
2017-08-22T05:22:49.048Z,56.40
2017-08-22T05:25:16.562Z,56.40
2017-08-22T05:27:44.078Z,56.40
2017-08-22T05:30:11.605Z,56.50
2017-08-22T05:32:39.138Z,56.90
2017-08-22T05:35:06.638Z,57.50
2017-08-22T05:37:34.266Z,58.20
2017-08-22T05:40:01.771Z,58.70
2017-08-22T05:42:29.306Z,59.20
2017-08-22T05:44:56.830Z,59.70
2017-08-22T05:47:24.326Z,60.10
2017-08-22T05:49:51.851Z,60.00
2017-08-22T05:52:19.350Z,60.50
2017-08-22T05:54:46.887Z,60.90
2017-08-22T05:57:14.385Z,60.80
2017-08-22T05:59:41.923Z,60.70
2017-08-22T06:02:09.410Z,61.00
2017-08-22T06:04:36.938Z,60.80
2017-08-22T06:07:05.426Z,60.60
2017-08-22T06:09:32.942Z,60.60
2017-08-22T06:12:00.438Z,60.40
2017-08-22T06:14:27.970Z,59.90
2017-08-22T06:16:55.474Z,59.60
2017-08-22T06:19:22.969Z,59.30
2017-08-22T06:21:50.499Z,59.10
2017-08-22T06:24:18.000Z,58.60
2017-08-22T06:26:45.524Z,58.40
2017-08-22T06:29:13.027Z,59.20
2017-08-22T06:31:40.550Z,58.90
2017-08-22T06:34:08.051Z,58.00
2017-08-22T06:36:35.578Z,58.20
2017-08-22T06:39:03.075Z,57.70
2017-08-22T06:41:30.622Z,57.10
2017-08-22T06:43:58.128Z,57.40
2017-08-22T06:46:25.650Z,57.00
2017-08-22T06:48:53.148Z,57.10
2017-08-22T06:51:21.431Z,57.10
2017-08-22T06:53:48.938Z,57.00
2017-08-22T06:56:16.470Z,56.60
2017-08-22T06:58:43.988Z,56.20
2017-08-22T07:01:11.490Z,55.20
2017-08-22T07:03:39.007Z,54.80
2017-08-22T07:06:06.515Z,55.40
2017-08-22T07:08:34.067Z,55.20
2017-08-22T07:11:01.646Z,55.40
2017-08-22T07:13:29.161Z,55.10
2017-08-22T07:15:56.687Z,54.70
2017-08-22T07:18:24.203Z,54.70
2017-08-22T07:20:51.776Z,54.60
2017-08-22T07:23:19.303Z,53.50
2017-08-22T07:25:46.814Z,51.80
2017-08-22T07:28:14.343Z,54.00
2017-08-22T07:30:41.851Z,52.20
2017-08-22T07:33:09.386Z,52.00
2017-08-22T07:35:36.882Z,51.70
2017-08-22T07:38:04.378Z,52.60
2017-08-22T07:40:31.898Z,53.20
2017-08-22T07:43:00.185Z,52.60
2017-08-22T07:45:27.706Z,52.60
2017-08-22T07:47:55.209Z,53.00
2017-08-22T07:50:22.742Z,51.40
2017-08-22T07:52:50.348Z,50.70
2017-08-22T07:55:17.868Z,50.90
2017-08-22T07:57:45.374Z,51.40
2017-08-22T08:00:12.886Z,51.30
2017-08-22T08:02:40.398Z,51.40
2017-08-22T08:05:07.927Z,51.00
2017-08-22T08:07:35.437Z,50.80
2017-08-22T08:10:02.946Z,50.50
2017-08-22T08:12:30.482Z,50.00
2017-08-22T08:14:57.997Z,49.10
2017-08-22T08:17:25.520Z,49.20
2017-08-22T08:19:53.022Z,49.00
2017-08-22T08:22:20.546Z,48.90
2017-08-22T08:24:48.047Z,48.50
2017-08-22T08:27:15.564Z,48.20
2017-08-22T08:29:43.079Z,48.20
2017-08-22T08:32:10.602Z,47.70
2017-08-22T08:34:38.101Z,47.60
2017-08-22T08:37:05.622Z,47.40
2017-08-22T08:39:33.138Z,47.20
2017-08-22T08:42:00.651Z,46.80
2017-08-22T08:44:28.150Z,46.60
2017-08-22T08:46:55.686Z,46.40
2017-08-22T08:49:23.190Z,46.40
2017-08-22T08:51:50.686Z,45.90
2017-08-22T08:54:18.206Z,46.10
2017-08-22T08:56:45.702Z,45.90
2017-08-22T08:59:13.214Z,45.30
2017-08-22T09:01:40.702Z,45.70
2017-08-22T09:04:08.210Z,42.30
2017-08-22T09:06:35.701Z,43.70
2017-08-22T09:09:03.214Z,42.40
2017-08-22T09:11:30.706Z,42.60
2017-08-22T09:13:58.234Z,42.60
2017-08-22T09:16:25.730Z,41.90
2017-08-22T09:18:53.245Z,40.20
2017-08-22T09:21:20.749Z,39.30
2017-08-22T09:23:48.262Z,40.80
2017-08-22T09:26:15.799Z,40.90
2017-08-22T09:28:43.333Z,41.20
2017-08-22T09:31:10.918Z,40.90
2017-08-22T09:33:38.415Z,41.20
2017-08-22T09:36:05.926Z,40.30
2017-08-22T09:38:33.473Z,39.00
2017-08-22T09:41:00.995Z,39.40
2017-08-22T09:43:28.490Z,40.40
2017-08-22T09:45:56.013Z,39.80
2017-08-22T09:48:23.506Z,40.20
2017-08-22T09:50:51.023Z,39.80
2017-08-22T09:53:18.519Z,39.80
2017-08-22T09:55:46.033Z,40.40
2017-08-22T09:58:13.526Z,40.10
2017-08-22T10:00:41.038Z,40.00
2017-08-22T10:03:51.662Z,40.10
2017-08-22T10:06:19.178Z,39.70
2017-08-22T10:08:46.675Z,39.80
2017-08-22T10:11:14.195Z,39.40
2017-08-22T10:13:41.690Z,39.20
2017-08-22T10:16:09.182Z,39.60
2017-08-22T10:18:36.701Z,39.20
2017-08-22T10:21:04.198Z,39.70
2017-08-22T10:23:31.722Z,39.40
2017-08-22T10:25:59.214Z,39.70
2017-08-22T10:28:26.786Z,39.60
2017-08-22T10:30:54.344Z,40.00
2017-08-22T10:33:21.858Z,39.20
2017-08-22T10:35:49.354Z,36.10
2017-08-22T10:38:16.874Z,37.10
2017-08-22T10:40:44.368Z,38.50
2017-08-22T10:43:11.926Z,38.70
2017-08-22T10:45:39.427Z,39.20
2017-08-22T10:48:06.942Z,38.80
2017-08-22T10:50:37.642Z,38.90
2017-08-22T10:53:05.138Z,39.10
2017-08-22T10:55:32.722Z,38.90
2017-08-22T10:58:00.239Z,38.90
2017-08-22T11:00:27.781Z,38.70
2017-08-22T11:02:55.351Z,39.10
2017-08-22T11:05:22.899Z,38.20
2017-08-22T11:07:50.436Z,38.00
2017-08-22T11:10:17.973Z,38.50
2017-08-22T11:12:45.474Z,39.40
2017-08-22T11:15:12.998Z,39.40
2017-08-22T11:17:40.494Z,39.60
2017-08-22T11:20:08.015Z,39.20
2017-08-22T11:22:35.522Z,38.80
2017-08-22T11:25:03.060Z,38.90
2017-08-22T11:27:30.598Z,38.10
2017-08-22T11:32:31.974Z,39.20
2017-08-22T11:34:59.482Z,38.90
2017-08-22T11:37:27.763Z,36.80
2017-08-22T11:39:55.258Z,36.80
2017-08-22T11:42:22.809Z,36.70
2017-08-22T11:44:50.318Z,36.20
2017-08-22T11:47:17.834Z,36.10
2017-08-22T11:49:45.334Z,37.40
2017-08-22T11:52:12.838Z,37.60
2017-08-22T11:54:40.329Z,37.60
2017-08-22T11:57:07.854Z,38.00
2017-08-22T11:59:35.430Z,38.20
2017-08-22T12:02:02.972Z,38.00
2017-08-22T12:04:30.511Z,37.80
2017-08-22T12:06:58.035Z,38.00
2017-08-22T12:09:25.550Z,37.80
2017-08-22T12:11:53.054Z,37.50
2017-08-22T12:14:20.578Z,36.90
2017-08-22T12:16:48.071Z,36.90
2017-08-22T12:19:15.671Z,35.80
2017-08-22T12:21:43.939Z,36.50
2017-08-22T12:24:11.455Z,36.40
2017-08-22T12:26:38.954Z,36.90
2017-08-22T12:29:06.469Z,37.30
2017-08-22T12:31:33.962Z,36.30
2017-08-22T12:34:01.510Z,36.00
2017-08-22T12:36:29.278Z,37.00
2017-08-22T12:38:56.774Z,37.50
2017-08-22T12:41:24.295Z,36.10
2017-08-22T12:43:51.794Z,36.20
2017-08-22T12:46:19.306Z,36.70
2017-08-22T12:48:46.806Z,36.40
2017-08-22T12:51:14.313Z,37.20
2017-08-22T12:53:41.803Z,37.20
2017-08-22T12:56:09.320Z,37.40
2017-08-22T12:58:36.820Z,36.40
2017-08-22T13:01:05.097Z,35.30
2017-08-22T13:03:32.603Z,35.30
2017-08-22T13:06:00.118Z,35.90
2017-08-22T13:08:27.639Z,35.90
2017-08-22T13:10:55.138Z,36.30
2017-08-22T13:13:22.654Z,34.40
2017-08-22T13:15:50.146Z,35.80
2017-08-22T13:18:17.678Z,35.30
2017-08-22T13:20:45.170Z,35.80
2017-08-22T13:23:12.690Z,36.60
2017-08-22T13:25:40.190Z,36.50
2017-08-22T13:28:07.714Z,35.70
2017-08-22T13:30:35.202Z,36.20
2017-08-22T13:33:02.707Z,36.50
2017-08-22T13:35:30.214Z,36.70
2017-08-22T13:37:57.711Z,37.20
2017-08-22T13:40:25.218Z,35.80
2017-08-22T13:42:52.715Z,36.00
2017-08-22T13:45:20.234Z,36.50
2017-08-22T13:47:47.728Z,36.90
2017-08-22T13:50:15.242Z,36.40
2017-08-22T13:52:42.737Z,36.50
2017-08-22T13:55:10.270Z,36.40
2017-08-22T13:57:37.762Z,36.70
2017-08-22T14:00:05.278Z,36.70
2017-08-22T14:02:32.779Z,36.30
2017-08-22T14:05:00.281Z,36.80
2017-08-22T14:07:27.794Z,37.10
2017-08-22T14:09:55.292Z,37.60
2017-08-22T14:12:22.801Z,37.10
2017-08-22T14:14:50.306Z,36.60
2017-08-22T14:17:17.830Z,36.10
2017-08-22T14:19:45.338Z,35.00
2017-08-22T14:22:12.847Z,35.50
2017-08-22T14:24:40.351Z,36.30
2017-08-22T14:27:07.862Z,36.90
2017-08-22T14:29:35.358Z,35.30
2017-08-22T14:32:02.878Z,35.20
2017-08-22T14:34:30.381Z,36.20
2017-08-22T14:36:57.874Z,35.70
2017-08-22T14:39:25.392Z,36.70
2017-08-22T14:41:52.897Z,36.30
2017-08-22T14:44:20.418Z,35.80
2017-08-22T14:46:47.932Z,35.50
2017-08-22T14:49:15.478Z,35.60
2017-08-22T14:51:42.970Z,35.90
2017-08-22T14:54:10.488Z,36.30
2017-08-22T14:56:37.985Z,35.70
2017-08-22T14:59:05.511Z,35.60
2017-08-22T15:01:33.002Z,35.20
2017-08-22T15:04:00.541Z,35.20
2017-08-22T15:06:28.049Z,35.70
2017-08-22T15:08:55.578Z,36.30
2017-08-22T15:11:23.070Z,36.40
2017-08-22T15:13:50.586Z,36.70
2017-08-22T15:16:18.102Z,35.10
2017-08-22T15:18:45.598Z,35.50
2017-08-22T15:21:13.126Z,35.80
2017-08-22T15:23:40.617Z,36.20
2017-08-22T15:26:08.147Z,36.40
2017-08-22T15:28:35.646Z,36.50
2017-08-22T15:31:03.230Z,36.60
2017-08-22T15:33:30.722Z,35.60
2017-08-22T15:35:58.230Z,35.20
2017-08-22T15:38:25.738Z,35.00
2017-08-22T15:40:53.324Z,35.70
2017-08-22T15:43:20.821Z,35.30
2017-08-22T15:45:48.343Z,35.20
2017-08-22T15:48:15.842Z,34.40
2017-08-22T15:50:43.354Z,35.30
2017-08-22T15:53:10.863Z,35.90
2017-08-22T15:55:38.390Z,36.10
2017-08-22T15:58:05.881Z,36.10
2017-08-22T16:00:33.385Z,36.40
2017-08-22T16:03:00.895Z,35.60
2017-08-22T16:05:28.386Z,34.70
2017-08-22T16:07:55.911Z,34.60
2017-08-22T16:10:23.422Z,35.50
2017-08-22T16:12:50.946Z,35.50
2017-08-22T16:15:18.437Z,35.40
2017-08-22T16:17:45.959Z,35.70
2017-08-22T16:20:13.453Z,36.30
2017-08-22T16:22:40.961Z,36.30
2017-08-22T16:25:08.495Z,35.50
2017-08-22T16:27:36.016Z,34.20
2017-08-22T16:30:03.535Z,33.40
2017-08-22T16:32:31.058Z,33.50
2017-08-22T16:34:58.590Z,34.60
2017-08-22T16:37:26.090Z,34.90
2017-08-22T16:39:53.613Z,34.90
2017-08-22T16:42:21.107Z,34.90
2017-08-22T16:44:48.622Z,35.20
2017-08-22T16:47:16.125Z,34.90
2017-08-22T16:49:43.642Z,34.50
2017-08-22T16:52:11.140Z,34.50
2017-08-22T16:54:38.662Z,35.10
2017-08-22T16:57:06.167Z,35.20
2017-08-22T16:59:34.463Z,35.40
2017-08-22T17:02:02.007Z,35.40
2017-08-22T17:04:29.623Z,35.70
2017-08-22T17:06:57.153Z,35.80
2017-08-22T17:09:24.660Z,35.70
2017-08-22T17:11:52.186Z,35.70
2017-08-22T17:14:19.702Z,35.50
2017-08-22T17:16:47.229Z,35.80
2017-08-22T17:19:14.731Z,36.10
2017-08-22T17:21:42.266Z,36.20
2017-08-22T17:24:09.778Z,36.60
2017-08-22T17:26:37.297Z,36.20
2017-08-22T17:29:04.799Z,36.50
2017-08-22T17:31:32.323Z,36.60
2017-08-22T17:33:59.825Z,36.90
2017-08-22T17:36:27.339Z,36.80
2017-08-22T17:38:54.841Z,36.70
2017-08-22T17:41:22.366Z,36.80
2017-08-22T17:43:49.873Z,36.90
2017-08-22T17:46:17.381Z,37.00
2017-08-22T17:48:44.894Z,37.00
2017-08-22T17:51:12.416Z,37.30
2017-08-22T17:53:39.950Z,37.60
2017-08-22T17:56:07.469Z,37.60
2017-08-22T17:58:34.994Z,37.70
2017-08-22T18:01:02.504Z,37.90
2017-08-22T18:03:30.027Z,38.00
2017-08-22T18:05:57.535Z,38.40
2017-08-22T18:08:25.057Z,38.80
2017-08-22T18:10:52.567Z,38.80
2017-08-22T18:13:20.082Z,39.20
2017-08-22T18:15:47.583Z,39.50
2017-08-22T18:18:15.139Z,40.00
2017-08-22T18:20:42.634Z,40.50
2017-08-22T18:23:10.163Z,41.70
2017-08-22T18:25:37.671Z,41.30
2017-08-22T18:28:05.175Z,41.60
2017-08-22T18:30:32.693Z,41.70
2017-08-22T18:33:00.210Z,41.90
2017-08-22T18:35:27.746Z,42.20
2017-08-22T18:37:55.247Z,42.60
2017-08-22T18:40:22.767Z,42.80
2017-08-22T18:42:50.274Z,43.50
2017-08-22T18:45:17.786Z,42.80
2017-08-22T18:47:46.095Z,43.40
2017-08-22T18:50:13.615Z,43.40
2017-08-22T18:52:41.123Z,43.60
2017-08-22T18:55:08.638Z,44.00
2017-08-22T18:57:36.141Z,44.30
2017-08-22T19:00:03.714Z,44.40
2017-08-22T19:02:31.212Z,44.70
2017-08-22T19:04:58.734Z,45.00
2017-08-22T19:07:26.239Z,45.10
2017-08-22T19:09:53.755Z,45.30
2017-08-22T19:12:21.278Z,45.50
2017-08-22T19:14:48.804Z,45.80
2017-08-22T19:17:16.362Z,46.00
2017-08-22T19:19:43.860Z,46.20
2017-08-22T19:22:11.378Z,47.00
2017-08-22T19:24:38.867Z,46.70
2017-08-22T19:27:06.377Z,46.70
2017-08-22T19:29:33.891Z,46.90
2017-08-22T19:32:01.437Z,47.10
2017-08-22T19:34:28.963Z,47.40
2017-08-22T19:36:56.491Z,47.50
2017-08-22T19:39:24.031Z,47.60
2017-08-22T19:41:51.558Z,47.80
2017-08-22T19:44:19.087Z,47.80
2017-08-22T19:46:46.577Z,48.20
2017-08-22T19:49:14.090Z,48.20
2017-08-22T19:51:41.647Z,48.50
2017-08-22T19:54:09.205Z,48.70
2017-08-22T19:56:36.702Z,48.80
2017-08-22T19:59:05.009Z,49.00
2017-08-22T20:01:32.506Z,49.00
2017-08-22T20:04:00.017Z,49.20
2017-08-22T20:06:27.554Z,49.20
2017-08-22T20:08:55.126Z,49.40
2017-08-22T20:11:22.666Z,49.50
2017-08-22T20:13:50.234Z,49.60
2017-08-22T20:16:17.757Z,49.60
2017-08-22T20:18:45.251Z,49.70
2017-08-22T20:21:12.793Z,49.80
2017-08-22T20:23:40.310Z,49.90
2017-08-22T20:26:07.870Z,50.00
2017-08-22T20:28:35.406Z,50.10
2017-08-22T20:31:02.951Z,50.20
2017-08-22T20:33:30.486Z,50.20
2017-08-22T20:35:58.045Z,51.00
2017-08-22T20:38:25.561Z,50.40
2017-08-22T20:40:53.110Z,50.60
2017-08-22T20:43:20.614Z,50.80
2017-08-22T20:45:48.503Z,50.80
2017-08-22T20:48:16.091Z,51.00
2017-08-22T20:50:43.598Z,51.00
2017-08-22T20:53:11.153Z,51.20
2017-08-22T20:55:38.648Z,51.40
2017-08-22T20:58:06.178Z,51.50
2017-08-22T21:00:33.743Z,51.60
2017-08-22T21:03:01.270Z,51.70
2017-08-22T21:05:28.773Z,51.70
2017-08-22T21:07:56.298Z,51.90
2017-08-22T21:10:23.814Z,51.90
2017-08-22T21:12:51.368Z,52.00
2017-08-22T21:15:18.873Z,52.30
2017-08-22T21:17:46.385Z,52.30
2017-08-22T21:20:13.890Z,52.30
2017-08-22T21:22:41.423Z,52.30
2017-08-22T21:25:08.914Z,52.30
2017-08-22T21:27:36.410Z,52.40
2017-08-22T21:30:03.923Z,52.50
2017-08-22T21:32:31.426Z,52.60
2017-08-22T21:34:59.007Z,52.80
2017-08-22T21:37:26.504Z,53.00
2017-08-22T21:39:54.058Z,53.00
2017-08-22T21:42:21.563Z,53.00
2017-08-22T21:44:49.078Z,53.00
2017-08-22T21:47:16.582Z,53.10
2017-08-22T21:49:44.095Z,53.00
2017-08-22T21:52:11.595Z,53.30
2017-08-22T21:54:39.111Z,53.20
2017-08-22T21:57:06.614Z,53.20
2017-08-22T21:59:34.142Z,53.30
2017-08-22T22:02:01.639Z,53.30
2017-08-22T22:04:29.149Z,53.40
2017-08-22T22:06:56.674Z,53.40
2017-08-22T22:09:24.174Z,53.40
2017-08-22T22:11:51.696Z,53.50
2017-08-22T22:14:19.194Z,53.60
2017-08-22T22:16:46.711Z,54.20
2017-08-22T22:19:14.210Z,53.60
2017-08-22T22:21:41.717Z,53.80
2017-08-22T22:24:09.216Z,53.70
2017-08-22T22:26:36.747Z,54.30
2017-08-22T22:29:04.242Z,53.90
2017-08-22T22:31:31.754Z,53.90
2017-08-22T22:33:59.242Z,54.00
2017-08-22T22:36:26.770Z,54.70
2017-08-22T22:38:54.279Z,54.10
2017-08-22T22:41:21.775Z,54.10
2017-08-22T22:43:49.299Z,54.20
2017-08-22T22:46:16.803Z,54.30
2017-08-22T22:48:44.310Z,54.30
2017-08-22T22:51:11.822Z,54.20
2017-08-22T22:53:39.450Z,54.30
2017-08-22T22:56:06.950Z,54.30
2017-08-22T22:58:34.467Z,54.30
2017-08-22T23:01:01.966Z,54.30
2017-08-22T23:03:29.483Z,54.40
2017-08-22T23:05:56.990Z,54.40
2017-08-22T23:08:25.270Z,54.50
2017-08-22T23:10:52.777Z,54.40
2017-08-22T23:13:20.306Z,54.30
2017-08-22T23:15:47.803Z,54.40
2017-08-22T23:18:15.295Z,54.40
2017-08-22T23:20:42.810Z,54.40
2017-08-22T23:23:10.305Z,54.90
2017-08-22T23:25:37.827Z,54.40
2017-08-22T23:28:05.327Z,54.50
2017-08-22T23:30:32.857Z,54.40
2017-08-22T23:33:00.359Z,54.70
2017-08-22T23:35:27.877Z,54.60
2017-08-22T23:37:55.370Z,54.60
2017-08-22T23:40:22.887Z,54.40
2017-08-22T23:42:56.103Z,54.50
2017-08-22T23:45:23.610Z,54.50
2017-08-22T23:47:51.106Z,54.50
2017-08-22T23:50:18.618Z,54.50
2017-08-22T23:52:46.110Z,54.60
2017-08-22T23:55:13.621Z,54.60
2017-08-22T23:57:41.120Z,54.70
